createdAt,value
2017-08-31T00:00:13.032Z,0
2017-08-31T00:00:53.552Z,0
2017-08-31T00:01:34.093Z,0
2017-08-31T00:02:14.637Z,0
2017-08-31T00:02:55.199Z,0
2017-08-31T00:03:35.725Z,0
2017-08-31T00:04:16.257Z,0
2017-08-31T00:04:56.839Z,0
2017-08-31T00:05:37.364Z,0
2017-08-31T00:06:17.927Z,0
2017-08-31T00:06:58.447Z,0
2017-08-31T00:07:38.984Z,0
2017-08-31T00:08:19.516Z,0
2017-08-31T00:09:00.070Z,0
2017-08-31T00:09:40.575Z,0
2017-08-31T00:10:21.110Z,0
2017-08-31T00:11:01.675Z,0
2017-08-31T00:11:42.160Z,0
2017-08-31T00:12:22.680Z,0
2017-08-31T00:13:03.260Z,0
2017-08-31T00:13:43.759Z,0
2017-08-31T00:14:24.308Z,0
2017-08-31T00:15:04.826Z,0
2017-08-31T00:15:45.394Z,0
2017-08-31T00:16:25.888Z,0
2017-08-31T00:17:06.488Z,0
2017-08-31T00:17:47.033Z,0
2017-08-31T00:18:27.560Z,0
2017-08-31T00:19:08.095Z,0
2017-08-31T00:19:48.636Z,0
2017-08-31T00:20:29.155Z,0
2017-08-31T00:21:09.691Z,0
2017-08-31T00:21:50.247Z,0
2017-08-31T00:22:30.794Z,0
2017-08-31T00:23:11.379Z,0
2017-08-31T00:23:51.918Z,0
2017-08-31T00:24:32.408Z,0
2017-08-31T00:25:12.971Z,0
2017-08-31T00:25:53.510Z,0
2017-08-31T00:26:34.051Z,0
2017-08-31T00:27:14.578Z,0
2017-08-31T00:27:55.136Z,0
2017-08-31T00:28:35.644Z,0
2017-08-31T00:29:16.179Z,0
2017-08-31T00:29:56.741Z,0
2017-08-31T00:30:37.279Z,0
2017-08-31T00:31:17.833Z,0
2017-08-31T00:31:58.390Z,0
2017-08-31T00:32:38.919Z,0
2017-08-31T00:33:19.463Z,0
2017-08-31T00:33:59.991Z,0
2017-08-31T00:34:40.537Z,0
2017-08-31T00:35:21.064Z,0
2017-08-31T00:36:01.607Z,0
2017-08-31T00:36:42.163Z,0
2017-08-31T00:37:22.710Z,0
2017-08-31T00:38:03.328Z,0
2017-08-31T00:38:43.800Z,0
2017-08-31T00:39:24.362Z,0
2017-08-31T00:40:04.877Z,0
2017-08-31T00:40:45.415Z,0
2017-08-31T00:41:25.960Z,0
2017-08-31T00:42:06.513Z,0
2017-08-31T00:42:47.080Z,0
2017-08-31T00:43:27.598Z,0
2017-08-31T00:44:08.171Z,0
2017-08-31T00:44:48.815Z,0
2017-08-31T00:45:29.333Z,0
2017-08-31T00:46:09.862Z,0
2017-08-31T00:46:50.401Z,0
2017-08-31T00:47:30.992Z,0
2017-08-31T00:48:11.526Z,0
2017-08-31T00:48:52.038Z,0
2017-08-31T00:49:32.551Z,0
2017-08-31T00:50:13.184Z,0
2017-08-31T00:50:53.671Z,0
2017-08-31T00:51:34.261Z,0
2017-08-31T00:52:14.776Z,0
2017-08-31T00:52:55.338Z,0
2017-08-31T00:53:35.832Z,0
2017-08-31T00:54:16.385Z,0
2017-08-31T00:54:56.939Z,0
2017-08-31T00:55:37.624Z,0
2017-08-31T00:56:18.107Z,0
2017-08-31T00:56:58.673Z,0
2017-08-31T00:57:39.192Z,0
2017-08-31T00:58:19.736Z,0
2017-08-31T00:59:00.287Z,0
2017-08-31T00:59:40.802Z,0
2017-08-31T01:00:21.355Z,0
2017-08-31T01:01:01.883Z,0
2017-08-31T01:01:42.398Z,0
2017-08-31T01:02:22.949Z,0
2017-08-31T01:03:03.539Z,0
2017-08-31T01:03:44.094Z,0
2017-08-31T01:04:24.611Z,0
2017-08-31T01:05:05.239Z,0
2017-08-31T01:05:45.764Z,0
2017-08-31T01:06:26.302Z,0
2017-08-31T01:07:06.822Z,0
2017-08-31T01:07:47.317Z,0
2017-08-31T01:08:27.867Z,0
2017-08-31T01:09:08.440Z,0
2017-08-31T01:09:48.972Z,0
2017-08-31T01:10:29.483Z,0
2017-08-31T01:11:10.122Z,0
2017-08-31T01:11:50.613Z,0
2017-08-31T01:12:31.117Z,0
2017-08-31T01:13:11.688Z,0
2017-08-31T01:13:52.204Z,0
2017-08-31T01:14:32.764Z,0
2017-08-31T01:15:13.260Z,0
2017-08-31T01:15:53.811Z,0
2017-08-31T01:16:34.370Z,0
2017-08-31T01:17:14.902Z,0
2017-08-31T01:17:55.415Z,0
2017-08-31T01:18:35.978Z,0
2017-08-31T01:19:16.553Z,0
2017-08-31T01:19:57.077Z,0
2017-08-31T01:20:37.595Z,0
2017-08-31T01:21:18.114Z,0
2017-08-31T01:21:58.675Z,0
2017-08-31T01:22:39.234Z,0
2017-08-31T01:23:19.775Z,0
2017-08-31T01:24:00.282Z,0
2017-08-31T01:24:40.866Z,0
2017-08-31T01:25:21.349Z,0
2017-08-31T01:26:01.913Z,0
2017-08-31T01:26:42.411Z,0
2017-08-31T01:27:22.984Z,0
2017-08-31T01:28:03.468Z,0
2017-08-31T01:28:44.089Z,0
2017-08-31T01:29:24.599Z,0
2017-08-31T01:30:05.151Z,0
2017-08-31T01:30:45.683Z,0
2017-08-31T01:31:26.226Z,0
2017-08-31T01:32:06.784Z,0
2017-08-31T01:32:47.336Z,0
2017-08-31T01:33:27.902Z,0
2017-08-31T01:34:08.498Z,0
2017-08-31T01:34:49.024Z,0
2017-08-31T01:35:29.560Z,0
2017-08-31T01:36:10.126Z,0
2017-08-31T01:36:50.676Z,0
2017-08-31T01:37:31.232Z,0
2017-08-31T01:38:11.791Z,0
2017-08-31T01:38:52.350Z,0
2017-08-31T01:39:32.866Z,0
2017-08-31T01:40:13.406Z,0
2017-08-31T01:40:53.974Z,0
2017-08-31T01:41:34.498Z,0
2017-08-31T01:42:15.010Z,0
2017-08-31T01:42:55.554Z,0
2017-08-31T01:43:36.146Z,0
2017-08-31T01:44:16.695Z,0
2017-08-31T01:44:57.293Z,0
2017-08-31T01:45:37.815Z,0
2017-08-31T01:46:18.355Z,0
2017-08-31T01:46:58.851Z,0
2017-08-31T01:47:39.393Z,0
2017-08-31T01:48:20.006Z,0
2017-08-31T01:49:00.537Z,0
2017-08-31T01:49:41.102Z,0
2017-08-31T01:50:21.591Z,0
2017-08-31T01:51:02.152Z,0
2017-08-31T01:51:42.708Z,0
2017-08-31T01:52:23.249Z,0
2017-08-31T01:53:03.789Z,0
2017-08-31T01:53:44.368Z,0
2017-08-31T01:54:24.945Z,0
2017-08-31T01:55:05.486Z,0
2017-08-31T01:55:45.986Z,0
2017-08-31T01:56:26.562Z,0
2017-08-31T01:57:07.100Z,0
2017-08-31T01:57:47.617Z,0
2017-08-31T01:58:28.172Z,0
2017-08-31T01:59:08.700Z,0
2017-08-31T01:59:49.231Z,0
2017-08-31T02:00:29.790Z,0
2017-08-31T02:01:10.362Z,0
2017-08-31T02:01:50.882Z,0
2017-08-31T02:02:31.452Z,0
2017-08-31T02:03:11.962Z,0
2017-08-31T02:03:52.509Z,0
2017-08-31T02:04:33.083Z,0
2017-08-31T02:05:13.627Z,0
2017-08-31T02:05:54.183Z,0
2017-08-31T02:06:34.745Z,0
2017-08-31T02:07:15.267Z,0
2017-08-31T02:07:55.819Z,0
2017-08-31T02:08:36.366Z,0
2017-08-31T02:09:16.935Z,0
2017-08-31T02:09:57.451Z,0
2017-08-31T02:10:38.019Z,0
2017-08-31T02:11:18.566Z,0
2017-08-31T02:11:59.119Z,0
2017-08-31T02:12:39.630Z,0
2017-08-31T02:13:20.172Z,0
2017-08-31T02:14:00.700Z,0
2017-08-31T02:14:41.236Z,0
2017-08-31T02:15:21.781Z,0
2017-08-31T02:16:02.333Z,0
2017-08-31T02:16:42.931Z,0
2017-08-31T02:17:23.438Z,0
2017-08-31T02:18:03.994Z,0
2017-08-31T02:18:44.530Z,0
2017-08-31T02:19:25.080Z,0
2017-08-31T02:20:05.664Z,0
2017-08-31T02:20:46.186Z,0
2017-08-31T02:21:26.727Z,0
2017-08-31T02:22:07.277Z,0
2017-08-31T02:22:47.828Z,0
2017-08-31T02:23:28.380Z,0
2017-08-31T02:24:08.943Z,0
2017-08-31T02:24:49.499Z,0
2017-08-31T02:25:30.039Z,0
2017-08-31T02:26:10.670Z,0
2017-08-31T02:26:51.237Z,0
2017-08-31T02:27:31.768Z,0
2017-08-31T02:28:12.301Z,0
2017-08-31T02:28:52.848Z,0
2017-08-31T02:29:33.374Z,0
2017-08-31T02:30:13.920Z,0
2017-08-31T02:30:54.440Z,0
2017-08-31T02:31:34.971Z,0
2017-08-31T02:32:15.490Z,0
2017-08-31T02:32:56.007Z,0
2017-08-31T02:33:36.573Z,0
2017-08-31T02:34:17.090Z,0
2017-08-31T02:34:57.621Z,0
2017-08-31T02:35:38.167Z,0
2017-08-31T02:36:18.725Z,0
2017-08-31T02:36:59.249Z,0
2017-08-31T02:37:39.779Z,0
2017-08-31T02:38:20.299Z,0
2017-08-31T02:39:00.872Z,0
2017-08-31T02:39:41.403Z,0
2017-08-31T02:40:21.942Z,0
2017-08-31T02:41:02.494Z,0
2017-08-31T02:41:43.041Z,0
2017-08-31T02:42:23.572Z,0
2017-08-31T02:43:04.119Z,0
2017-08-31T02:43:44.632Z,0
2017-08-31T02:44:25.153Z,0
2017-08-31T02:45:05.692Z,0
2017-08-31T02:45:46.193Z,0
2017-08-31T02:46:26.698Z,0
2017-08-31T02:47:07.264Z,0
2017-08-31T02:47:47.785Z,0
2017-08-31T02:48:28.317Z,0
2017-08-31T02:49:08.902Z,0
2017-08-31T02:49:49.446Z,0
2017-08-31T02:50:29.976Z,0
2017-08-31T02:51:10.507Z,0
2017-08-31T02:51:51.062Z,0
2017-08-31T02:52:31.593Z,0
2017-08-31T02:53:12.146Z,0
2017-08-31T02:53:52.660Z,0
2017-08-31T02:54:33.241Z,0
2017-08-31T02:55:13.796Z,0
2017-08-31T02:55:54.357Z,0
2017-08-31T02:56:34.919Z,0
2017-08-31T02:57:15.495Z,0
2017-08-31T02:57:56.004Z,0
2017-08-31T02:58:36.607Z,0
2017-08-31T02:59:17.118Z,0
2017-08-31T02:59:57.623Z,0
2017-08-31T03:00:38.170Z,0
2017-08-31T03:01:18.747Z,0
2017-08-31T03:01:59.273Z,0
2017-08-31T03:02:39.841Z,0
2017-08-31T03:03:20.416Z,0
2017-08-31T03:04:00.916Z,0
2017-08-31T03:04:41.484Z,0
2017-08-31T03:05:21.975Z,0
2017-08-31T03:06:02.537Z,0
2017-08-31T03:06:43.083Z,0
2017-08-31T03:07:23.609Z,0
2017-08-31T03:08:04.116Z,0
2017-08-31T03:08:44.666Z,0
2017-08-31T03:09:25.233Z,0
2017-08-31T03:10:05.760Z,0
2017-08-31T03:10:46.307Z,0
2017-08-31T03:11:26.846Z,0
2017-08-31T03:12:07.394Z,0
2017-08-31T03:12:47.894Z,0
2017-08-31T03:13:28.447Z,0
2017-08-31T03:14:09.003Z,0
2017-08-31T03:14:49.543Z,0
2017-08-31T03:15:30.094Z,0
2017-08-31T03:16:10.623Z,0
2017-08-31T03:16:51.125Z,0
2017-08-31T03:17:31.650Z,0
2017-08-31T03:18:12.198Z,0
2017-08-31T03:18:52.751Z,0
2017-08-31T03:19:33.285Z,0
2017-08-31T03:20:13.826Z,0
2017-08-31T03:20:54.348Z,0
2017-08-31T03:21:34.909Z,0
2017-08-31T03:22:15.393Z,0
2017-08-31T03:22:55.960Z,0
2017-08-31T03:23:36.499Z,0
2017-08-31T03:24:17.055Z,0
2017-08-31T03:24:57.608Z,0
2017-08-31T03:25:38.170Z,0
2017-08-31T03:26:18.709Z,0
2017-08-31T03:26:59.271Z,0
2017-08-31T03:27:39.827Z,0
2017-08-31T03:28:20.365Z,0
2017-08-31T03:29:00.939Z,0
2017-08-31T03:29:41.465Z,0
2017-08-31T03:30:22.064Z,0
2017-08-31T03:31:02.583Z,0
2017-08-31T03:31:43.146Z,0
2017-08-31T03:32:23.690Z,0
2017-08-31T03:33:04.229Z,0
2017-08-31T03:33:44.804Z,0
2017-08-31T03:34:25.382Z,0
2017-08-31T03:35:05.899Z,0
2017-08-31T03:35:46.442Z,0
2017-08-31T03:36:27.037Z,0
2017-08-31T03:37:07.538Z,0
2017-08-31T03:37:48.113Z,0
2017-08-31T03:38:28.634Z,0
2017-08-31T03:39:09.181Z,0
2017-08-31T03:39:49.690Z,0
2017-08-31T03:40:30.273Z,0
2017-08-31T03:41:10.821Z,0
2017-08-31T03:41:51.327Z,0
2017-08-31T03:42:31.929Z,0
2017-08-31T03:43:12.429Z,0
2017-08-31T03:43:53.008Z,0
2017-08-31T03:44:33.535Z,0
2017-08-31T03:45:14.095Z,0
2017-08-31T03:45:54.723Z,0
2017-08-31T03:46:35.177Z,0
2017-08-31T03:47:15.736Z,0
2017-08-31T03:47:56.342Z,0
2017-08-31T03:48:36.845Z,0
2017-08-31T03:49:17.394Z,0
2017-08-31T03:49:57.938Z,0
2017-08-31T03:50:38.534Z,0
2017-08-31T03:51:19.022Z,0
2017-08-31T03:51:59.574Z,0
2017-08-31T03:52:40.111Z,0
2017-08-31T03:53:20.625Z,0
2017-08-31T03:54:01.157Z,0
2017-08-31T03:54:41.742Z,0
2017-08-31T03:55:22.319Z,0
2017-08-31T03:56:02.889Z,0
2017-08-31T03:56:43.424Z,0
2017-08-31T03:57:23.942Z,0
2017-08-31T03:58:04.453Z,0
2017-08-31T03:58:45.009Z,0
2017-08-31T03:59:25.539Z,0
2017-08-31T04:00:06.075Z,0
2017-08-31T04:00:46.696Z,0
2017-08-31T04:01:27.221Z,0
2017-08-31T04:02:07.789Z,0
2017-08-31T04:02:48.346Z,0
2017-08-31T04:03:28.880Z,0
2017-08-31T04:04:09.425Z,0
2017-08-31T04:04:49.986Z,0
2017-08-31T04:05:30.548Z,0
2017-08-31T04:06:11.051Z,0
2017-08-31T04:06:51.576Z,0
2017-08-31T04:07:32.184Z,0
2017-08-31T04:08:12.748Z,0
2017-08-31T04:08:53.223Z,0
2017-08-31T04:09:33.783Z,0
2017-08-31T04:10:14.358Z,0
2017-08-31T04:10:54.860Z,0
2017-08-31T04:11:35.579Z,0
2017-08-31T04:12:16.114Z,0
2017-08-31T04:12:56.657Z,0
2017-08-31T04:13:37.230Z,0
2017-08-31T04:14:18.469Z,0
2017-08-31T04:14:58.349Z,0
2017-08-31T04:15:38.856Z,0
2017-08-31T04:16:19.477Z,0
2017-08-31T04:17:00.002Z,0
2017-08-31T04:17:40.579Z,0
2017-08-31T04:18:21.095Z,0
2017-08-31T04:19:01.690Z,4
2017-08-31T04:19:42.235Z,4
2017-08-31T04:20:22.782Z,0
2017-08-31T04:21:03.310Z,0
2017-08-31T04:21:43.882Z,0
2017-08-31T04:22:24.512Z,0
2017-08-31T04:23:05.006Z,0
2017-08-31T04:23:45.586Z,4
2017-08-31T04:24:26.071Z,4
2017-08-31T04:25:06.641Z,4
2017-08-31T04:25:47.168Z,4
2017-08-31T04:26:27.691Z,4
2017-08-31T04:27:08.289Z,4
2017-08-31T04:27:48.823Z,4
2017-08-31T04:28:29.401Z,4
2017-08-31T04:29:09.918Z,4
2017-08-31T04:29:50.428Z,4
2017-08-31T04:30:30.982Z,8
2017-08-31T04:31:11.582Z,8
2017-08-31T04:31:52.126Z,8
2017-08-31T04:32:32.683Z,8
2017-08-31T04:33:13.240Z,12
2017-08-31T04:33:53.752Z,12
2017-08-31T04:34:34.337Z,16
2017-08-31T04:35:14.880Z,16
2017-08-31T04:35:55.472Z,16
2017-08-31T04:36:36.016Z,12
2017-08-31T04:37:16.576Z,12
2017-08-31T04:37:57.128Z,8
2017-08-31T04:38:37.637Z,8
2017-08-31T04:39:18.210Z,8
2017-08-31T04:39:58.776Z,4
2017-08-31T04:40:39.280Z,4
2017-08-31T04:41:19.889Z,0
2017-08-31T04:42:00.417Z,4
2017-08-31T04:42:40.980Z,4
2017-08-31T04:43:21.520Z,4
2017-08-31T04:44:02.095Z,4
2017-08-31T04:44:42.652Z,4
2017-08-31T04:45:23.200Z,4
2017-08-31T04:46:03.795Z,8
2017-08-31T04:46:44.309Z,8
2017-08-31T04:47:24.865Z,8
2017-08-31T04:48:05.419Z,12
2017-08-31T04:48:45.978Z,8
2017-08-31T04:49:26.524Z,8
2017-08-31T04:50:07.067Z,4
2017-08-31T04:50:47.660Z,4
2017-08-31T04:51:28.254Z,4
2017-08-31T04:52:08.801Z,4
2017-08-31T04:52:49.344Z,8
2017-08-31T04:53:29.971Z,8
2017-08-31T04:54:10.483Z,12
2017-08-31T04:54:51.036Z,16
2017-08-31T04:55:31.591Z,20
2017-08-31T04:56:12.204Z,28
2017-08-31T04:56:52.746Z,32
2017-08-31T04:57:33.237Z,36
2017-08-31T04:58:13.853Z,48
2017-08-31T04:58:54.483Z,56
2017-08-31T04:59:35.125Z,64
2017-08-31T05:00:15.591Z,68
2017-08-31T05:00:56.088Z,80
2017-08-31T05:01:36.619Z,92
2017-08-31T05:02:17.172Z,112
2017-08-31T05:02:57.729Z,128
2017-08-31T05:03:38.332Z,152
2017-08-31T05:04:18.825Z,172
2017-08-31T05:04:59.362Z,192
2017-08-31T05:05:39.974Z,204
2017-08-31T05:06:20.523Z,212
2017-08-31T05:07:01.075Z,212
2017-08-31T05:07:41.556Z,224
2017-08-31T05:08:22.143Z,244
2017-08-31T05:09:02.743Z,276
2017-08-31T05:09:43.418Z,284
2017-08-31T05:10:23.945Z,272
2017-08-31T05:11:04.440Z,264
2017-08-31T05:11:45.025Z,256
2017-08-31T05:12:25.569Z,240
2017-08-31T05:13:06.103Z,224
2017-08-31T05:13:46.715Z,216
2017-08-31T05:14:27.223Z,212
2017-08-31T05:15:07.789Z,216
2017-08-31T05:15:48.322Z,240
2017-08-31T05:16:28.898Z,216
2017-08-31T05:17:09.388Z,188
2017-08-31T05:17:50.020Z,160
2017-08-31T05:18:30.572Z,132
2017-08-31T05:19:11.134Z,124
2017-08-31T05:19:51.682Z,128
2017-08-31T05:20:32.258Z,136
2017-08-31T05:21:12.841Z,136
2017-08-31T05:21:53.487Z,132
2017-08-31T05:22:34.016Z,136
2017-08-31T05:23:14.548Z,144
2017-08-31T05:23:55.126Z,156
2017-08-31T05:24:35.695Z,176
2017-08-31T05:25:16.215Z,188
2017-08-31T05:25:56.764Z,196
2017-08-31T05:26:37.343Z,196
2017-08-31T05:27:17.889Z,196
2017-08-31T05:27:58.487Z,200
2017-08-31T05:28:39.000Z,204
2017-08-31T05:29:19.558Z,216
2017-08-31T05:30:00.133Z,228
2017-08-31T05:30:40.793Z,248
2017-08-31T05:31:21.333Z,272
2017-08-31T05:32:01.943Z,316
2017-08-31T05:32:42.486Z,348
2017-08-31T05:33:23.075Z,360
2017-08-31T05:34:03.570Z,372
2017-08-31T05:34:44.298Z,372
2017-08-31T05:35:24.962Z,368
2017-08-31T05:36:05.536Z,368
2017-08-31T05:36:46.065Z,336
2017-08-31T05:37:26.638Z,320
2017-08-31T05:38:07.197Z,344
2017-08-31T05:38:47.739Z,384
2017-08-31T05:39:29.063Z,412
2017-08-31T05:40:09.574Z,460
2017-08-31T05:40:50.138Z,460
2017-08-31T05:41:30.668Z,476
2017-08-31T05:42:11.215Z,500
2017-08-31T05:42:51.791Z,536
2017-08-31T05:43:32.304Z,568
2017-08-31T05:44:13.350Z,600
2017-08-31T05:44:53.897Z,632
2017-08-31T05:45:34.448Z,636
2017-08-31T05:46:14.960Z,568
2017-08-31T05:46:55.534Z,616
2017-08-31T05:47:36.027Z,628
2017-08-31T05:48:17.263Z,612
2017-08-31T05:48:58.304Z,592
2017-08-31T05:49:41.348Z,576
2017-08-31T05:50:21.926Z,552
2017-08-31T05:51:02.478Z,516
2017-08-31T05:51:42.990Z,496
2017-08-31T05:52:23.563Z,420
2017-08-31T05:53:04.129Z,408
2017-08-31T05:53:44.764Z,392
2017-08-31T05:54:25.285Z,424
2017-08-31T05:55:05.840Z,460
2017-08-31T05:55:46.354Z,468
2017-08-31T05:56:26.909Z,488
2017-08-31T05:57:07.544Z,500
2017-08-31T05:57:48.092Z,456
2017-08-31T05:58:29.946Z,424
2017-08-31T05:59:10.407Z,396
2017-08-31T05:59:50.936Z,480
2017-08-31T06:00:31.517Z,480
2017-08-31T06:01:12.162Z,556
2017-08-31T06:01:52.807Z,636
2017-08-31T06:02:33.244Z,704
2017-08-31T06:03:14.144Z,712
2017-08-31T06:03:54.670Z,800
2017-08-31T06:05:00.952Z,972
2017-08-31T06:05:41.545Z,1080
2017-08-31T06:06:22.159Z,1164
2017-08-31T06:07:03.612Z,1156
2017-08-31T06:07:44.524Z,1152
2017-08-31T06:08:25.094Z,1176
2017-08-31T06:09:05.625Z,1172
2017-08-31T06:09:46.271Z,1200
2017-08-31T06:10:26.971Z,1232
2017-08-31T06:11:07.678Z,1308
2017-08-31T06:11:48.205Z,1300
2017-08-31T06:12:28.993Z,1324
2017-08-31T06:13:12.747Z,1312
2017-08-31T06:13:53.326Z,1380
2017-08-31T06:14:34.303Z,1484
2017-08-31T06:15:14.868Z,1564
2017-08-31T06:15:55.445Z,1640
2017-08-31T06:16:36.060Z,1692
2017-08-31T06:17:16.639Z,1684
2017-08-31T06:17:57.268Z,1640
2017-08-31T06:18:37.847Z,1536
2017-08-31T06:19:18.453Z,1524
2017-08-31T06:19:59.213Z,1320
2017-08-31T06:20:39.778Z,1144
2017-08-31T06:21:20.482Z,956
2017-08-31T06:22:01.043Z,932
2017-08-31T06:22:41.676Z,952
2017-08-31T06:23:22.288Z,972
2017-08-31T06:24:02.850Z,968
2017-08-31T06:24:43.436Z,840
2017-08-31T06:25:24.030Z,868
2017-08-31T06:26:04.615Z,1016
2017-08-31T06:26:45.266Z,1112
2017-08-31T06:27:25.828Z,1200
2017-08-31T06:28:06.445Z,1180
2017-08-31T06:28:47.059Z,1124
2017-08-31T06:29:27.619Z,1176
2017-08-31T06:30:08.223Z,1296
2017-08-31T06:30:48.799Z,1240
2017-08-31T06:31:29.403Z,1396
2017-08-31T06:32:10.007Z,1276
2017-08-31T06:32:50.580Z,1588
2017-08-31T06:33:31.186Z,1704
2017-08-31T06:34:11.703Z,1836
2017-08-31T06:34:52.376Z,1704
2017-08-31T06:35:32.939Z,1616
2017-08-31T06:36:13.546Z,1576
2017-08-31T06:36:54.142Z,1556
2017-08-31T06:37:34.698Z,1512
2017-08-31T06:38:15.316Z,1596
2017-08-31T06:38:55.812Z,1616
2017-08-31T06:39:36.407Z,1564
2017-08-31T06:40:16.993Z,1212
2017-08-31T06:40:57.574Z,1388
2017-08-31T06:41:38.118Z,1500
2017-08-31T06:42:18.783Z,1532
2017-08-31T06:42:59.405Z,1968
2017-08-31T06:43:39.958Z,2244
2017-08-31T06:44:20.515Z,2424
2017-08-31T06:45:01.030Z,2092
2017-08-31T06:45:41.572Z,1508
2017-08-31T06:46:22.157Z,1244
2017-08-31T06:47:02.731Z,1464
2017-08-31T06:47:43.367Z,1232
2017-08-31T06:48:23.910Z,1204
2017-08-31T06:49:04.470Z,960
2017-08-31T06:49:45.043Z,876
2017-08-31T06:50:25.615Z,812
2017-08-31T06:51:06.214Z,1052
2017-08-31T06:51:46.797Z,1076
2017-08-31T06:52:27.320Z,1300
2017-08-31T06:53:07.956Z,1560
2017-08-31T06:53:48.598Z,1776
2017-08-31T06:54:29.165Z,1868
2017-08-31T06:57:02.956Z,2272
2017-08-31T06:57:43.534Z,2356
2017-08-31T06:58:24.096Z,2400
2017-08-31T06:59:04.650Z,2424
2017-08-31T06:59:45.225Z,2384
2017-08-31T07:00:25.804Z,2372
2017-08-31T07:01:06.364Z,2360
2017-08-31T07:01:46.943Z,2432
2017-08-31T07:02:27.491Z,2564
2017-08-31T07:03:08.012Z,2668
2017-08-31T07:03:48.563Z,2744
2017-08-31T07:04:29.107Z,2720
2017-08-31T07:05:09.649Z,2628
2017-08-31T07:05:50.216Z,2508
2017-08-31T07:06:30.749Z,2488
2017-08-31T07:07:11.302Z,2372
2017-08-31T07:07:51.981Z,2388
2017-08-31T07:08:32.547Z,2400
2017-08-31T07:09:13.112Z,2368
2017-08-31T07:09:53.687Z,2336
2017-08-31T07:10:34.197Z,2224
2017-08-31T07:11:14.748Z,2076
2017-08-31T07:11:55.350Z,1908
2017-08-31T07:12:35.895Z,1848
2017-08-31T07:13:16.475Z,1836
2017-08-31T07:13:57.100Z,1864
2017-08-31T07:14:37.633Z,2000
2017-08-31T07:15:18.234Z,2100
2017-08-31T07:15:58.744Z,2244
2017-08-31T07:16:39.316Z,2348
2017-08-31T07:17:19.864Z,2356
2017-08-31T07:18:00.414Z,2304
2017-08-31T07:18:40.969Z,2264
2017-08-31T07:19:21.581Z,2216
2017-08-31T07:20:02.117Z,2168
2017-08-31T07:20:42.708Z,2188
2017-08-31T07:21:23.255Z,2196
2017-08-31T07:22:03.847Z,2292
2017-08-31T07:22:44.387Z,2356
2017-08-31T07:23:25.067Z,2444
2017-08-31T07:24:05.652Z,2500
2017-08-31T07:24:46.288Z,2524
2017-08-31T07:25:26.822Z,2472
2017-08-31T07:26:07.446Z,2444
2017-08-31T07:26:48.030Z,2432
2017-08-31T07:27:28.598Z,2464
2017-08-31T07:28:09.191Z,2568
2017-08-31T07:28:49.740Z,2724
2017-08-31T07:29:30.291Z,2844
2017-08-31T07:30:10.854Z,2904
2017-08-31T07:30:51.444Z,2896
2017-08-31T07:31:32.006Z,2984
2017-08-31T07:32:12.595Z,2764
2017-08-31T07:32:53.107Z,2164
2017-08-31T07:33:33.751Z,1592
2017-08-31T07:34:14.326Z,1268
2017-08-31T07:34:54.842Z,1088
2017-08-31T07:35:35.429Z,836
2017-08-31T07:36:16.048Z,836
2017-08-31T07:36:56.599Z,820
2017-08-31T07:37:37.197Z,696
2017-08-31T07:38:17.765Z,568
2017-08-31T07:38:58.360Z,544
2017-08-31T07:39:38.937Z,480
2017-08-31T07:40:19.481Z,548
2017-08-31T07:41:00.067Z,568
2017-08-31T07:41:40.643Z,572
2017-08-31T07:42:21.247Z,608
2017-08-31T07:43:01.862Z,588
2017-08-31T07:43:42.371Z,596
2017-08-31T07:44:22.985Z,528
2017-08-31T07:45:03.551Z,580
2017-08-31T07:45:44.076Z,724
2017-08-31T07:46:24.698Z,812
2017-08-31T07:47:05.304Z,900
2017-08-31T07:47:45.888Z,828
2017-08-31T07:48:26.413Z,756
2017-08-31T07:49:07.037Z,512
2017-08-31T07:49:47.560Z,460
2017-08-31T07:50:28.093Z,512
2017-08-31T07:51:08.674Z,656
2017-08-31T07:51:49.277Z,908
2017-08-31T07:52:29.822Z,1116
2017-08-31T07:53:10.434Z,1240
2017-08-31T07:53:51.015Z,1352
2017-08-31T07:54:31.542Z,1552
2017-08-31T07:55:12.111Z,1792
2017-08-31T07:55:52.745Z,1976
2017-08-31T07:56:33.285Z,2016
2017-08-31T07:57:13.879Z,1972
2017-08-31T07:57:54.420Z,1868
2017-08-31T07:58:34.988Z,1792
2017-08-31T07:59:15.552Z,1764
2017-08-31T07:59:56.130Z,1720
2017-08-31T08:00:36.731Z,1748
2017-08-31T08:01:17.271Z,1688
2017-08-31T08:01:57.810Z,1628
2017-08-31T08:02:38.396Z,1556
2017-08-31T08:03:18.954Z,1472
2017-08-31T08:03:59.550Z,1432
2017-08-31T08:04:40.109Z,1392
2017-08-31T08:05:20.723Z,1376
2017-08-31T08:06:01.322Z,1388
2017-08-31T08:06:41.871Z,1428
2017-08-31T08:07:22.500Z,1472
2017-08-31T08:08:03.061Z,1500
2017-08-31T08:08:43.874Z,1512
2017-08-31T08:09:24.417Z,1548
2017-08-31T08:10:05.111Z,1620
2017-08-31T08:10:45.668Z,1760
2017-08-31T08:11:26.240Z,1836
2017-08-31T08:12:06.827Z,1936
2017-08-31T08:12:47.369Z,1992
2017-08-31T08:13:27.934Z,2136
2017-08-31T08:14:08.569Z,2216
2017-08-31T08:14:49.097Z,2244
2017-08-31T08:15:29.732Z,2272
2017-08-31T08:16:10.364Z,2208
2017-08-31T08:16:51.092Z,2164
2017-08-31T08:17:31.949Z,2172
2017-08-31T08:18:12.557Z,2184
2017-08-31T08:18:53.133Z,2196
2017-08-31T08:19:33.864Z,2204
2017-08-31T08:20:14.365Z,2220
2017-08-31T08:20:54.961Z,2236
2017-08-31T08:21:35.614Z,2276
2017-08-31T08:22:16.354Z,2420
2017-08-31T08:22:56.887Z,2528
2017-08-31T08:23:37.480Z,2656
2017-08-31T08:24:17.979Z,2816
2017-08-31T08:24:58.564Z,2968
2017-08-31T08:25:39.178Z,3032
2017-08-31T08:26:19.748Z,3012
2017-08-31T08:27:00.288Z,2960
2017-08-31T08:27:40.893Z,2724
2017-08-31T08:28:21.536Z,2520
2017-08-31T08:29:02.087Z,2732
2017-08-31T08:29:42.708Z,2640
2017-08-31T08:30:23.359Z,2604
2017-08-31T08:31:04.113Z,2608
2017-08-31T08:31:44.550Z,2680
2017-08-31T08:32:25.096Z,2776
2017-08-31T08:33:05.705Z,3032
2017-08-31T08:33:46.359Z,3140
2017-08-31T08:34:26.905Z,3460
2017-08-31T08:35:07.463Z,3612
2017-08-31T08:35:48.095Z,3760
2017-08-31T08:36:28.600Z,3944
2017-08-31T08:37:09.194Z,4096
2017-08-31T08:37:49.749Z,4168
2017-08-31T08:38:30.504Z,4340
2017-08-31T08:39:11.067Z,4220
2017-08-31T08:39:51.624Z,4212
2017-08-31T08:40:32.237Z,3880
2017-08-31T08:41:12.746Z,3652
2017-08-31T08:41:53.310Z,4148
2017-08-31T08:42:33.873Z,3876
2017-08-31T08:43:14.476Z,3264
2017-08-31T08:43:55.024Z,3224
2017-08-31T08:44:35.618Z,3416
2017-08-31T08:45:16.217Z,3804
2017-08-31T08:45:56.713Z,3960
2017-08-31T08:46:37.362Z,3884
2017-08-31T08:47:17.960Z,3856
2017-08-31T08:47:58.571Z,3988
2017-08-31T08:48:39.108Z,3940
2017-08-31T08:49:19.681Z,3912
2017-08-31T08:50:00.255Z,3812
2017-08-31T08:50:40.931Z,3656
2017-08-31T08:51:21.497Z,3636
2017-08-31T08:52:02.080Z,3476
2017-08-31T08:52:42.602Z,3320
2017-08-31T08:53:23.185Z,3388
2017-08-31T08:54:03.832Z,3348
2017-08-31T08:54:44.396Z,3300
2017-08-31T08:55:24.879Z,3124
2017-08-31T08:56:05.473Z,3044
2017-08-31T08:56:46.053Z,2968
2017-08-31T08:57:26.669Z,2940
2017-08-31T08:58:07.257Z,2892
2017-08-31T08:58:47.771Z,2776
2017-08-31T08:59:28.330Z,2616
2017-08-31T09:00:08.933Z,2620
2017-08-31T09:00:49.534Z,2568
2017-08-31T09:01:30.066Z,2460
2017-08-31T09:02:10.655Z,2372
2017-08-31T09:02:51.250Z,2276
2017-08-31T09:03:31.846Z,2208
2017-08-31T09:04:12.417Z,2104
2017-08-31T09:04:52.980Z,2112
2017-08-31T09:05:33.923Z,2004
2017-08-31T09:06:14.469Z,2084
2017-08-31T09:06:55.202Z,2060
2017-08-31T09:07:35.759Z,2416
2017-08-31T09:08:16.378Z,2548
2017-08-31T09:08:56.923Z,2368
2017-08-31T09:09:37.496Z,2620
2017-08-31T09:10:18.116Z,2888
2017-08-31T09:10:58.695Z,3188
2017-08-31T09:11:39.250Z,3420
2017-08-31T09:12:19.844Z,3652
2017-08-31T09:13:00.416Z,3592
2017-08-31T09:13:41.114Z,3724
2017-08-31T09:14:21.597Z,3912
2017-08-31T09:15:02.166Z,3776
2017-08-31T09:15:42.719Z,3916
2017-08-31T09:16:23.370Z,3980
2017-08-31T09:17:03.895Z,4084
2017-08-31T09:17:44.532Z,4060
2017-08-31T09:18:25.110Z,3828
2017-08-31T09:19:05.661Z,3704
2017-08-31T09:19:46.164Z,3276
2017-08-31T09:20:26.808Z,3644
2017-08-31T09:21:07.390Z,3876
2017-08-31T09:21:47.960Z,3764
2017-08-31T09:22:28.502Z,3816
2017-08-31T09:23:09.125Z,3964
2017-08-31T09:23:49.649Z,3892
2017-08-31T09:24:30.229Z,3932
2017-08-31T09:25:10.849Z,3860
2017-08-31T09:25:51.380Z,3748
2017-08-31T09:26:31.970Z,3760
2017-08-31T09:27:12.531Z,3696
2017-08-31T09:27:53.103Z,3696
2017-08-31T09:28:33.718Z,3672
2017-08-31T09:29:14.269Z,3656
2017-08-31T09:29:54.921Z,3688
2017-08-31T09:30:35.471Z,3664
2017-08-31T09:31:16.001Z,3692
2017-08-31T09:31:56.598Z,3764
2017-08-31T09:32:37.138Z,3828
2017-08-31T09:33:17.768Z,3980
2017-08-31T09:33:58.346Z,4096
2017-08-31T09:34:38.904Z,4280